To NAV CANADA Home Page Login to a new session Search on AWWS site Disclaimer Vers la page française équivalente Tips FAQ What's new on the site To the Forecasts and Observations / NOTAM section To "File a Flight Plan" website Publications and other links Update of the User's profile FIC Telephone Numbers My Weather Data Folder Route Weather Data Regional Weather Data Local Weather Data To the Forecasts and Observations / NOTAM section
Request Generated 06/25/2018 at 05:33:49 UTC . Weather information available at that time is displayed.

METAR/TAF

WINDSOR/ON    

METAR CYQG 250500Z 02009KT 12SM SKC 16/13 A3009 RMK SLP189 DENSITY
ALT 700FT=
METAR CYQG 250400Z 05010G16KT 12SM FEW280 16/13 A3008 RMK CI1 CI TR
SLP187 DENSITY ALT 800FT=
METAR CYQG 250300Z 05012KT 12SM FEW260 17/15 A3006 RMK CI1 SLP178
DENSITY ALT 900FT=

TAF CYQG 242338Z 2500/2524 06010KT P6SM FEW060 SCT100
BECMG 2502/2504 02006KT SKC
FM251000 04010KT P6SM SKC
BECMG 2516/2518 05012KT
RMK NXT FCST BY 250600Z=

LONDON/ON    

METAR CYXU 250500Z 36004KT 15SM SKC 15/14 A3007 RMK SLP184 DENSITY
ALT 1000FT=
METAR CYXU 250400Z 33004KT 15SM SKC 16/15 A3006 RMK SLP180 DENSITY
ALT 1100FT=
METAR CYXU 250300Z 30006KT 15SM SKC 16/15 A3004 RMK SLP173 DENSITY
ALT 1200FT=

TAF CYXU 242338Z 2500/2524 01005KT P6SM FEW020 SCT040 BKN110 TEMPO
2500/2503 SCT040 SCT110
FM250300 01010KT P6SM SCT050 TEMPO 2503/2508 BKN050
BECMG 2512/2514 04012KT
FM251800 07006KT P6SM SKC
RMK NXT FCST BY 250600Z=

SARNIA (CHRIS HADFIELD)/ON    (show WxCam)

METAR CYZR 250500Z AUTO 36009KT 9SM CLR 14/12 A3009 RMK SLP193=
METAR CYZR 250400Z AUTO 34009KT 9SM CLR 13/13 A3009 RMK SLP190=
METAR CYZR 250300Z AUTO 36009KT 9SM CLR 14/13 A3007 RMK SLP186=

*** REMARK        : Forecast period has ended; this was the last TAF issued
*** REMARQUE : La période de prévision est échue; ceci était le dernier TAF qui a été émis
TAF AMD CYZR 242208Z 2422/2502 01010G20KT P6SM BKN020 TEMPO 2422/2424
SCT020
FM250000 36012KT P6SM SCT020
RMK FCST BASED ON AUTO OBS. NXT FCST WILL BE ISSUED AT 250745Z=

KITCHENER/WATERLOO/ON    (show WxCam)

METAR CYKF 250500Z AUTO 01009KT 9SM FEW070 15/13 A3008 RMK SLP187=
METAR CYKF 250400Z AUTO 35006KT 9SM SCT065 BKN078 16/15 A3006 RMK
SLP181 DENSITY ALT 1100FT=
METAR CYKF 250300Z AUTO 34003KT 9SM FEW080 15/15 A3003 RMK SLP171
DENSITY ALT 1100FT=

TAF CYKF 250139Z 2502/2514 32003KT P6SM SCT090 TEMPO 2502/2505 BKN060
FM251200 03008KT P6SM SKC
RMK FCST BASED ON AUTO OBS. NXT FCST BY 250800Z=

HAMILTON/ON    

METAR CYHM 250500Z 01010KT 15SM FEW025 SCT066 16/14 A3006 RMK SC1AC2
SLP181 DENSITY ALT 1000FT=
METAR CYHM 250400Z 01003KT 15SM BKN023 BKN080 16/15 A3005 RMK SC5AC1
SLP177 DENSITY ALT 1000FT=
METAR CYHM 250300Z 34005KT 15SM SCT025 BKN070 16/15 A3001 RMK SC3AC3
SLP164 DENSITY ALT 1000FT=

TAF AMD CYHM 250423Z 2504/2524 01003KT P6SM SCT020 BKN080 TEMPO
2504/2508 BKN020 BKN080
FM251000 03012KT P6SM SKC
RMK NXT FCST BY 250600Z=

TORONTO/LESTER B. PEARSON INTL/ON    

METAR CYYZ 250500Z 36012KT 15SM SCT050 BKN075 15/12 A3006 RMK SC3AC4
SLP181 DENSITY ALT 600FT=
METAR CYYZ 250400Z 35015KT 15SM FEW060 SCT075 15/12 A3004 RMK SC2AC2
SLP175 DENSITY ALT 600FT=
METAR CYYZ 250300Z 35013KT 15SM SCT070 BKN100 17/12 A3001 RMK AC4AC3
SLP166 DENSITY ALT 800FT=

TAF CYYZ 250238Z 2503/2606 36008G18KT P6SM BKN070 TEMPO 2503/2507
SCT070
FM250700 35012KT P6SM SCT050
BECMG 2510/2512 SKC
FM252100 01008KT P6SM SKC
BECMG 2600/2602 32003KT
RMK NXT FCST BY 250600Z=
Your time UTC time
Weather data provided by Environment Canada and NAV CANADA